East Corinth, VT (05040)

06:50 AM EDT del 27 Agosto 2014 (GMT -0400)
Goshen Heights | Change Station
CLOSE
Current Station
Stazione meteo personale
Location: Bradford, VT
Altitudine: 1060 ft
Stazioni meteo nelle vicinanze

Alt. 1060 ft 44.01 °N, 72.14 °W | Updated 13 seconds ago

Parzialmente nuvoloso
Parzialmente nuvoloso
63.8 °F
Sembra 63.8 °F
N
0.0
Vento Variabile Vento da SO
Gusts 0.0 mph

Oggi
Massima -- | Minima -- °F
--% Possibilità di precip.
Ieri
Massima -- | Minima -- °F
Precip. -- in
6:06 AM 7:33 PM
Luna crescente, 3% visible
Pressione 29.99 in
Visibilità 10.0 miglia
Nuvole Alcuni 4200 ft
Molto nuvoloso 8000 ft
Molto nuvoloso 11000 ft
Punto di rugiada 61 °F
Umidità 91%
Piovosità 0.00 in
Spessore del manto nevoso Non disponibile.
Raggi UV 0 fuori da 12
Polline 8.50 fuori da 12
Ozono Buono
PM2.5 Buono
Flu Activity Non disponibile.
METAR KMPV 270951Z AUTO 00000KT 10SM FEW042 BKN080 BKN110 18/15 A3000 RMK AO2 SLP153 T01780150

More Conditions Fewer Conditions

Pressione 29.99 in
Visibilità 10.0 miglia
Nuvole Alcuni 4200 ft
Molto nuvoloso 8000 ft
Molto nuvoloso 11000 ft
Punto di rugiada 61 °F
Umidità 91%
Piovosità 0.00 in
Spessore del manto nevoso Non disponibile.
Raggi UV 0 fuori da 12
Polline 8.50 fuori da 12
Ozono Buono
PM2.5 Buono
Flu Activity Non disponibile.
METAR KMPV 270951Z AUTO 00000KT 10SM FEW042 BKN080 BKN110 18/15 A3000 RMK AO2 SLP153 T01780150

More Conditions Fewer Conditions

10-Day Weather Forecast

Almanac

Astronomia

Aug. 27, 2014 Alba Tramonto
Ora attuale 06:06 EDT 19:33 EDT
Crepuscolo civile 05:36 EDT 20:03 EDT
Crepuscolo nautico 04:59 EDT 20:39 EDT
Crepuscolo astronomico 04:20 EDT 21:18 EDT
Luna 08:05 EDT 20:17 EDT
Estensione della luce visibile 14h 27m
Lunghezza del giorno
13h 27m
Tomorrow will be 2m 53s shorter.
Luna crescente, 3% of the Moon is Illuminated
Oggi
Luna crescente
Set 2
Primo quarto
Set 8
Luna piena
Set 15
Ultimo quarto
Set 24
Nuovo

Gli estremi di oggi

State Highs State Lows

Community

WunderPhotos

Upload Photos

1,747,666 foto caricate!

Nearby

Qualità dell'aria

  Qualità dell'aria Indice AQ Inquinante
Ieri Buono
OZONE
Ieri Buono
PM2.5
Attuale Buono
PM2.5
Attuale Buono
OZONE
Mercoledì Buono
PM2.5
Giovedì Buono
PM2.5
Venerdì Buono
PM2.5

Profondità neve

Stazione Profondità Altitudine
Non sono state evidenziate nuove nevicate

Attività sismica

Città  Distanza Mag. Data & Ora
Non sono state riportate attività sismiche nelle vicinanze.
Minimo Magnitudo Mostrato è 2.5.

Temperature delle acque costiere

Località Temperatura
Nessun dato dalle stazioni

Stazioni meteo nelle vicinanze